createdAt,value
2018-05-21T00:00:50.643Z,0.00
2018-05-21T00:01:50.667Z,0.00
2018-05-21T00:02:50.693Z,0.00
2018-05-21T00:03:50.721Z,0.00
2018-05-21T00:04:50.750Z,0.00
2018-05-21T00:05:50.773Z,0.00
2018-05-21T00:06:50.801Z,0.00
2018-05-21T00:07:50.833Z,0.00
2018-05-21T00:08:50.857Z,0.00
2018-05-21T00:09:50.881Z,0.00
2018-05-21T00:10:50.906Z,0.00
2018-05-21T00:11:50.936Z,0.00
2018-05-21T00:12:50.956Z,0.00
2018-05-21T00:13:50.987Z,0.00
2018-05-21T00:14:51.010Z,0.00
2018-05-21T00:15:51.042Z,0.00
2018-05-21T00:16:51.137Z,0.00
2018-05-21T00:17:51.092Z,0.00
2018-05-21T00:18:51.113Z,0.00
2018-05-21T00:19:51.138Z,0.00
2018-05-21T00:20:51.168Z,0.00
2018-05-21T00:21:51.191Z,0.00
2018-05-21T00:22:51.217Z,0.00
2018-05-21T00:23:51.246Z,0.00
2018-05-21T00:24:51.277Z,0.00
2018-05-21T00:25:51.298Z,0.00
2018-05-21T00:26:51.322Z,0.00
2018-05-21T00:27:51.346Z,0.00
2018-05-21T00:28:51.371Z,0.00
2018-05-21T00:29:51.405Z,0.00
2018-05-21T00:30:51.424Z,0.00
2018-05-21T00:31:51.451Z,0.00
2018-05-21T00:32:51.481Z,0.00
2018-05-21T00:33:51.505Z,0.00
2018-05-21T00:34:51.526Z,0.00
2018-05-21T00:35:51.559Z,0.00
2018-05-21T00:36:51.583Z,0.00
2018-05-21T00:37:51.609Z,0.00
2018-05-21T00:38:51.631Z,0.00
2018-05-21T00:39:51.658Z,0.00
2018-05-21T00:40:51.688Z,0.00
2018-05-21T00:41:51.715Z,0.00
2018-05-21T00:42:51.737Z,0.00
2018-05-21T00:43:51.784Z,0.00
2018-05-21T00:44:51.786Z,0.00
2018-05-21T00:45:51.817Z,0.00
2018-05-21T00:46:51.839Z,0.00
2018-05-21T00:47:51.884Z,0.00
2018-05-21T00:48:51.894Z,0.00
2018-05-21T00:49:51.916Z,0.00
2018-05-21T00:50:51.944Z,0.00
2018-05-21T00:51:51.966Z,0.00
2018-05-21T00:52:51.999Z,0.00
2018-05-21T00:53:52.017Z,0.00
2018-05-21T00:54:52.045Z,0.00
2018-05-21T00:55:52.074Z,0.00
2018-05-21T00:56:52.096Z,0.00
2018-05-21T00:57:52.121Z,0.00
2018-05-21T00:58:52.156Z,0.00
2018-05-21T00:59:52.175Z,0.00
2018-05-21T01:00:52.201Z,0.00
2018-05-21T01:01:52.225Z,0.00
2018-05-21T01:02:52.250Z,0.00
2018-05-21T01:03:52.275Z,0.00
2018-05-21T01:04:52.308Z,0.00
2018-05-21T01:05:52.330Z,0.00
2018-05-21T01:06:52.355Z,0.00
2018-05-21T01:07:52.384Z,0.00
2018-05-21T01:08:52.404Z,0.00
2018-05-21T01:09:52.431Z,0.00
2018-05-21T01:10:52.459Z,0.00
2018-05-21T01:11:52.480Z,0.00
2018-05-21T01:12:52.513Z,0.00
2018-05-21T01:13:52.530Z,0.00
2018-05-21T01:14:52.562Z,0.00
2018-05-21T01:15:52.589Z,0.00
2018-05-21T01:16:52.609Z,0.00
2018-05-21T01:17:52.634Z,0.00
2018-05-21T01:18:52.659Z,0.00
2018-05-21T01:19:52.688Z,0.00
2018-05-21T01:20:52.711Z,0.00
2018-05-21T01:21:52.739Z,0.00
2018-05-21T01:22:52.766Z,0.00
2018-05-21T01:23:52.789Z,0.00
2018-05-21T01:24:52.814Z,0.00
2018-05-21T01:25:52.840Z,0.00
2018-05-21T01:26:52.864Z,0.00
2018-05-21T01:27:52.893Z,0.00
2018-05-21T01:28:52.914Z,0.00
2018-05-21T01:29:52.940Z,0.00
2018-05-21T01:30:52.968Z,0.00
2018-05-21T01:31:53.003Z,0.00
2018-05-21T01:32:53.019Z,0.00
2018-05-21T01:33:53.044Z,0.00
2018-05-21T01:34:53.069Z,0.00
2018-05-21T01:35:53.094Z,0.00
2018-05-21T01:36:53.123Z,0.00
2018-05-21T01:37:53.147Z,0.00
2018-05-21T01:38:53.176Z,0.00
2018-05-21T01:39:53.198Z,0.00
2018-05-21T01:40:53.217Z,0.00
2018-05-21T01:41:53.249Z,0.00
2018-05-21T01:42:53.274Z,0.00
2018-05-21T01:43:53.302Z,0.00
2018-05-21T01:44:53.324Z,0.00
2018-05-21T01:45:53.356Z,0.00
2018-05-21T01:46:53.373Z,0.00
2018-05-21T01:47:53.406Z,0.00
2018-05-21T01:48:53.424Z,0.00
2018-05-21T01:49:53.448Z,0.00
2018-05-21T01:50:53.484Z,0.00
2018-05-21T01:51:53.498Z,0.00
2018-05-21T01:52:53.528Z,0.00
2018-05-21T01:53:53.552Z,0.00
2018-05-21T01:54:53.578Z,0.00
2018-05-21T01:55:53.603Z,0.00
2018-05-21T01:56:53.631Z,0.00
2018-05-21T01:57:53.652Z,0.00
2018-05-21T01:58:53.677Z,0.00
2018-05-21T01:59:53.703Z,0.00
2018-05-21T02:00:53.731Z,0.00
2018-05-21T02:01:53.753Z,0.00
2018-05-21T02:02:53.782Z,0.00
2018-05-21T02:03:53.802Z,0.00
2018-05-21T02:04:53.832Z,0.00
2018-05-21T02:05:53.852Z,0.00
2018-05-21T02:06:53.885Z,0.00
2018-05-21T02:07:53.912Z,0.00
2018-05-21T02:08:53.932Z,0.00
2018-05-21T02:09:53.958Z,0.00
2018-05-21T02:10:53.981Z,0.00
2018-05-21T02:11:54.007Z,0.00
2018-05-21T02:12:54.032Z,0.00
2018-05-21T02:13:54.060Z,0.00
2018-05-21T02:14:54.088Z,0.00
2018-05-21T02:15:54.108Z,0.00
2018-05-21T02:16:54.135Z,0.00
2018-05-21T02:17:54.158Z,0.00
2018-05-21T02:18:54.183Z,0.00
2018-05-21T02:19:54.231Z,0.00
2018-05-21T02:20:54.238Z,0.00
2018-05-21T02:21:54.259Z,0.00
2018-05-21T02:22:54.289Z,0.00
2018-05-21T02:23:54.307Z,0.00
2018-05-21T02:24:54.339Z,0.00
2018-05-21T02:25:54.357Z,0.00
2018-05-21T02:26:54.399Z,0.00
2018-05-21T02:27:54.415Z,4.00
2018-05-21T02:28:54.442Z,4.00
2018-05-21T02:29:54.465Z,4.00
2018-05-21T02:30:54.487Z,4.00
2018-05-21T02:31:54.511Z,4.00
2018-05-21T02:32:54.536Z,4.00
2018-05-21T02:33:54.561Z,0.00
2018-05-21T02:34:54.587Z,4.00
2018-05-21T02:35:54.610Z,4.00
2018-05-21T02:36:54.637Z,4.00
2018-05-21T02:37:54.658Z,8.00
2018-05-21T02:38:54.694Z,8.00
2018-05-21T02:39:54.715Z,4.00
2018-05-21T02:40:54.741Z,8.00
2018-05-21T02:41:54.766Z,8.00
2018-05-21T02:42:54.786Z,8.00
2018-05-21T02:43:54.811Z,12.00
2018-05-21T02:44:54.842Z,12.00
2018-05-21T02:45:54.867Z,16.00
2018-05-21T02:46:54.894Z,16.00
2018-05-21T02:47:54.913Z,16.00
2018-05-21T02:48:54.935Z,20.00
2018-05-21T02:49:54.974Z,24.00
2018-05-21T02:50:55.001Z,24.00
2018-05-21T02:51:55.014Z,24.00
2018-05-21T02:52:55.039Z,32.00
2018-05-21T02:53:55.065Z,32.00
2018-05-21T02:54:55.085Z,40.00
2018-05-21T02:55:55.111Z,44.00
2018-05-21T02:56:55.139Z,48.00
2018-05-21T02:57:55.161Z,52.00
2018-05-21T02:58:55.184Z,60.00
2018-05-21T02:59:55.216Z,68.00
2018-05-21T03:00:55.236Z,76.00
2018-05-21T03:01:55.263Z,80.00
2018-05-21T03:02:55.285Z,88.00
2018-05-21T03:03:55.309Z,100.00
2018-05-21T03:04:55.336Z,104.00
2018-05-21T03:05:55.359Z,116.00
2018-05-21T03:06:55.385Z,128.00
2018-05-21T03:07:55.412Z,136.00
2018-05-21T03:08:55.435Z,152.00
2018-05-21T03:09:55.470Z,160.00
2018-05-21T03:10:55.487Z,176.00
2018-05-21T03:11:55.518Z,184.00
2018-05-21T03:12:55.537Z,196.00
2018-05-21T03:13:55.558Z,212.00
2018-05-21T03:14:55.589Z,224.00
2018-05-21T03:15:55.608Z,240.00
2018-05-21T03:16:55.634Z,256.00
2018-05-21T03:17:55.663Z,268.00
2018-05-21T03:18:55.688Z,284.00
2018-05-21T03:19:55.708Z,304.00
2018-05-21T03:20:55.738Z,320.00
2018-05-21T03:21:55.762Z,340.00
2018-05-21T03:22:55.784Z,360.00
2018-05-21T03:23:55.817Z,376.00
2018-05-21T03:24:55.835Z,396.00
2018-05-21T03:25:55.862Z,416.00
2018-05-21T03:26:55.883Z,440.00
2018-05-21T03:27:55.911Z,464.00
2018-05-21T03:28:55.937Z,488.00
2018-05-21T03:29:55.962Z,512.00
2018-05-21T03:30:55.989Z,540.00
2018-05-21T03:31:56.008Z,564.00
2018-05-21T03:32:56.033Z,592.00
2018-05-21T03:33:56.056Z,620.00
2018-05-21T03:34:56.078Z,652.00
2018-05-21T03:35:56.107Z,688.00
2018-05-21T03:36:56.133Z,720.00
2018-05-21T03:37:56.157Z,756.00
2018-05-21T03:38:56.178Z,796.00
2018-05-21T03:39:56.203Z,832.00
2018-05-21T03:40:56.228Z,872.00
2018-05-21T03:41:56.253Z,912.00
2018-05-21T03:42:56.282Z,952.00
2018-05-21T03:43:56.303Z,1000.00
2018-05-21T03:44:56.361Z,1048.00
2018-05-21T03:45:56.352Z,1100.00
2018-05-21T03:46:56.377Z,1152.00
2018-05-21T03:47:56.404Z,1208.00
2018-05-21T03:48:56.431Z,1264.00
2018-05-21T03:49:56.453Z,1320.00
2018-05-21T03:50:56.477Z,1372.00
2018-05-21T03:51:56.503Z,1420.00
2018-05-21T03:52:56.527Z,1464.00
2018-05-21T03:53:56.553Z,1500.00
2018-05-21T03:54:56.576Z,1532.00
2018-05-21T03:55:56.604Z,1564.00
2018-05-21T03:56:56.665Z,1588.00
2018-05-21T03:57:56.652Z,1616.00
2018-05-21T03:58:56.672Z,1640.00
2018-05-21T03:59:56.702Z,1668.00
2018-05-21T04:00:56.732Z,1692.00
2018-05-21T04:01:56.749Z,1716.00
2018-05-21T04:02:56.784Z,1744.00
2018-05-21T04:03:56.809Z,1784.00
2018-05-21T04:04:56.822Z,1824.00
2018-05-21T04:05:56.846Z,1856.00
2018-05-21T04:06:56.875Z,1896.00
2018-05-21T04:07:56.896Z,1924.00
2018-05-21T04:08:56.925Z,1956.00
2018-05-21T04:09:56.946Z,1984.00
2018-05-21T04:10:56.974Z,2012.00
2018-05-21T04:11:57.042Z,2040.00
2018-05-21T04:12:57.025Z,2072.00
2018-05-21T04:13:57.050Z,2092.00
2018-05-21T04:14:57.072Z,2124.00
2018-05-21T04:15:57.096Z,2144.00
2018-05-21T04:16:57.129Z,2176.00
2018-05-21T04:17:57.146Z,2204.00
2018-05-21T04:18:57.173Z,2236.00
2018-05-21T04:19:57.197Z,2264.00
2018-05-21T04:20:57.226Z,2300.00
2018-05-21T04:21:57.249Z,2332.00
2018-05-21T04:22:57.275Z,2364.00
2018-05-21T04:23:57.299Z,2392.00
2018-05-21T04:24:57.320Z,2424.00
2018-05-21T04:25:57.345Z,2448.00
2018-05-21T04:26:57.367Z,2476.00
2018-05-21T04:27:57.399Z,2508.00
2018-05-21T04:28:57.416Z,2544.00
2018-05-21T04:29:57.450Z,2576.00
2018-05-21T04:30:57.465Z,2612.00
2018-05-21T04:31:57.500Z,2648.00
2018-05-21T04:32:57.521Z,2684.00
2018-05-21T04:33:57.542Z,2720.00
2018-05-21T04:34:57.576Z,2752.00
2018-05-21T04:35:57.596Z,2780.00
2018-05-21T04:36:57.623Z,2808.00
2018-05-21T04:37:57.645Z,2832.00
2018-05-21T04:38:57.665Z,2848.00
2018-05-21T04:39:57.697Z,2860.00
2018-05-21T04:40:57.719Z,2872.00
2018-05-21T04:41:57.740Z,2876.00
2018-05-21T04:42:57.766Z,2892.00
2018-05-21T04:43:57.795Z,2896.00
2018-05-21T04:44:57.818Z,2904.00
2018-05-21T04:45:57.839Z,2912.00
2018-05-21T04:46:57.867Z,2928.00
2018-05-21T04:47:57.891Z,2940.00
2018-05-21T04:48:57.919Z,2944.00
2018-05-21T04:49:57.938Z,2956.00
2018-05-21T04:50:57.969Z,2976.00
2018-05-21T04:51:57.993Z,2988.00
2018-05-21T04:52:58.023Z,3000.00
2018-05-21T04:53:58.040Z,3012.00
2018-05-21T04:54:58.071Z,3028.00
2018-05-21T04:55:58.094Z,3036.00
2018-05-21T04:56:58.116Z,3048.00
2018-05-21T04:57:58.140Z,3060.00
2018-05-21T04:58:58.164Z,3080.00
2018-05-21T04:59:58.194Z,3092.00
2018-05-21T05:00:58.217Z,3112.00
2018-05-21T05:01:58.244Z,3128.00
2018-05-21T05:02:58.263Z,3156.00
2018-05-21T05:03:58.290Z,3172.00
2018-05-21T05:04:58.313Z,3200.00
2018-05-21T05:05:58.339Z,3220.00
2018-05-21T05:06:58.365Z,3240.00
2018-05-21T05:07:58.389Z,3256.00
2018-05-21T05:08:58.413Z,3268.00
2018-05-21T05:09:58.444Z,3284.00
2018-05-21T05:10:58.467Z,3288.00
2018-05-21T05:11:58.489Z,3292.00
2018-05-21T05:12:58.517Z,3300.00
2018-05-21T05:13:58.539Z,3316.00
2018-05-21T05:14:58.563Z,3336.00
2018-05-21T05:15:58.593Z,3356.00
2018-05-21T05:16:58.619Z,3376.00
2018-05-21T05:17:58.636Z,3396.00
2018-05-21T05:18:58.663Z,3412.00
2018-05-21T05:19:58.691Z,3424.00
2018-05-21T05:20:58.728Z,3440.00
2018-05-21T05:21:58.738Z,3444.00
2018-05-21T05:22:58.765Z,3448.00
2018-05-21T05:23:58.793Z,3468.00
2018-05-21T05:24:58.814Z,3480.00
2018-05-21T05:25:58.840Z,3496.00
2018-05-21T05:26:58.863Z,3512.00
2018-05-21T05:27:58.890Z,3528.00
2018-05-21T05:28:58.913Z,3540.00
2018-05-21T05:29:58.943Z,3560.00
2018-05-21T05:30:58.962Z,3584.00
2018-05-21T05:31:58.987Z,3612.00
2018-05-21T05:32:59.023Z,3644.00
2018-05-21T05:33:59.038Z,3668.00
2018-05-21T05:34:59.063Z,3692.00
2018-05-21T05:35:59.129Z,3708.00
2018-05-21T05:36:59.112Z,3716.00
2018-05-21T05:37:59.142Z,3712.00
2018-05-21T05:38:59.170Z,3700.00
2018-05-21T05:39:59.191Z,3676.00
2018-05-21T05:40:59.217Z,3648.00
2018-05-21T05:41:59.254Z,3616.00
2018-05-21T05:42:59.262Z,3596.00
2018-05-21T05:43:59.294Z,3632.00
2018-05-21T05:44:59.315Z,3664.00
2018-05-21T05:45:59.338Z,3700.00
2018-05-21T05:46:59.362Z,3744.00
2018-05-21T05:47:59.389Z,3784.00
2018-05-21T05:48:59.420Z,3836.00
2018-05-21T05:49:59.437Z,3872.00
2018-05-21T05:50:59.467Z,3916.00
2018-05-21T05:51:59.490Z,3940.00
2018-05-21T05:52:59.522Z,3948.00
2018-05-21T05:53:59.545Z,3944.00
2018-05-21T05:54:59.571Z,3928.00
2018-05-21T05:55:59.592Z,3896.00
2018-05-21T05:56:59.621Z,3896.00
2018-05-21T05:57:59.641Z,3880.00
2018-05-21T05:58:59.670Z,3892.00
2018-05-21T05:59:59.698Z,3912.00
2018-05-21T06:00:59.723Z,3932.00
2018-05-21T06:01:59.747Z,3944.00
2018-05-21T06:02:59.766Z,3940.00
2018-05-21T06:03:59.797Z,3940.00
2018-05-21T06:04:59.841Z,3928.00
2018-05-21T06:05:59.850Z,3920.00
2018-05-21T06:06:59.874Z,3908.00
2018-05-21T06:07:59.897Z,3892.00
2018-05-21T06:08:59.929Z,3864.00
2018-05-21T06:09:59.949Z,3856.00
2018-05-21T06:10:59.979Z,3848.00
2018-05-21T06:12:00.005Z,3820.00
2018-05-21T06:13:00.027Z,3804.00
2018-05-21T06:14:00.052Z,3816.00
2018-05-21T06:15:00.076Z,3816.00
2018-05-21T06:16:00.101Z,3820.00
2018-05-21T06:17:00.131Z,3812.00
2018-05-21T06:18:00.151Z,3808.00
2018-05-21T06:19:00.188Z,3800.00
2018-05-21T06:20:00.204Z,3780.00
2018-05-21T06:21:00.230Z,3776.00
2018-05-21T06:22:00.258Z,3776.00
2018-05-21T06:23:00.286Z,3768.00
2018-05-21T06:24:00.308Z,3784.00
2018-05-21T06:25:00.335Z,3816.00
2018-05-21T06:26:00.385Z,3880.00
2018-05-21T06:27:00.389Z,3948.00
2018-05-21T06:28:00.409Z,4016.00
2018-05-21T06:29:00.449Z,4064.00
2018-05-21T06:30:00.470Z,4100.00
2018-05-21T06:31:00.494Z,4124.00
2018-05-21T06:32:00.524Z,4136.00
2018-05-21T06:33:00.552Z,4132.00
2018-05-21T06:34:00.660Z,4112.00
2018-05-21T06:35:00.591Z,4092.00
2018-05-21T06:36:00.623Z,4068.00
2018-05-21T06:37:00.645Z,4068.00
2018-05-21T06:38:00.669Z,4060.00
2018-05-21T06:39:00.697Z,4060.00
2018-05-21T06:40:00.725Z,4060.00
2018-05-21T06:41:00.755Z,4080.00
2018-05-21T06:42:00.772Z,4040.00
2018-05-21T06:43:00.806Z,4024.00
2018-05-21T06:44:00.825Z,4036.00
2018-05-21T06:45:00.849Z,4000.00
2018-05-21T06:46:00.879Z,4004.00
2018-05-21T06:47:00.907Z,4016.00
2018-05-21T06:48:00.929Z,4020.00
2018-05-21T06:49:00.955Z,4052.00
2018-05-21T06:50:00.979Z,4068.00
2018-05-21T06:51:01.009Z,4124.00
2018-05-21T06:52:01.070Z,4132.00
2018-05-21T06:53:01.064Z,4180.00
2018-05-21T06:54:01.088Z,4236.00
2018-05-21T06:55:01.115Z,4260.00
2018-05-21T06:56:01.144Z,4256.00
2018-05-21T06:57:01.169Z,4228.00
2018-05-21T06:58:01.199Z,4228.00
2018-05-21T06:59:01.299Z,4192.00
2018-05-21T07:00:01.245Z,4180.00
2018-05-21T07:01:01.276Z,4152.00
2018-05-21T07:02:01.297Z,4144.00
2018-05-21T07:03:01.327Z,4124.00
2018-05-21T07:04:01.348Z,4140.00
2018-05-21T07:05:01.385Z,4128.00
2018-05-21T07:06:01.406Z,4136.00
2018-05-21T07:07:01.440Z,4148.00
2018-05-21T07:08:01.538Z,4152.00
2018-05-21T07:09:01.482Z,4156.00
2018-05-21T07:10:01.515Z,4156.00
2018-05-21T07:11:01.533Z,4156.00
2018-05-21T07:12:01.561Z,4148.00
2018-05-21T07:13:01.592Z,4136.00
2018-05-21T07:14:01.675Z,4124.00
2018-05-21T07:15:01.635Z,4108.00
2018-05-21T07:16:01.663Z,4068.00
2018-05-21T07:17:01.690Z,4036.00
2018-05-21T07:18:01.718Z,4024.00
2018-05-21T07:19:01.744Z,3976.00
2018-05-21T07:20:01.769Z,3976.00
2018-05-21T07:21:01.799Z,3988.00
2018-05-21T07:22:01.822Z,4004.00
2018-05-21T07:23:01.849Z,4016.00
2018-05-21T07:24:01.874Z,4048.00
2018-05-21T07:25:01.907Z,4076.00
2018-05-21T07:26:01.928Z,4124.00
2018-05-21T07:27:01.958Z,4148.00
2018-05-21T07:28:01.985Z,4168.00
2018-05-21T07:29:02.008Z,4180.00
2018-05-21T07:30:02.033Z,4188.00
2018-05-21T07:31:02.061Z,4176.00
2018-05-21T07:32:02.088Z,4168.00
2018-05-21T07:33:02.112Z,4148.00
2018-05-21T07:34:02.151Z,4120.00
2018-05-21T07:35:02.167Z,4088.00
2018-05-21T07:36:02.201Z,4020.00
2018-05-21T07:37:02.223Z,3952.00
2018-05-21T07:38:02.247Z,3956.00
2018-05-21T07:39:02.312Z,4000.00
2018-05-21T07:40:02.306Z,4020.00
2018-05-21T07:41:02.334Z,4040.00
2018-05-21T07:42:02.355Z,4064.00
2018-05-21T07:43:02.382Z,4116.00
2018-05-21T07:44:02.410Z,4140.00
2018-05-21T07:45:02.432Z,4152.00
2018-05-21T07:46:02.462Z,4140.00
2018-05-21T07:47:02.488Z,4112.00
2018-05-21T07:48:02.512Z,4088.00
2018-05-21T07:49:02.554Z,4052.00
2018-05-21T07:50:02.568Z,4032.00
2018-05-21T07:51:02.594Z,4016.00
2018-05-21T07:52:02.635Z,4000.00
2018-05-21T07:53:02.647Z,3984.00
2018-05-21T07:54:02.681Z,3976.00
2018-05-21T07:55:02.709Z,3980.00
2018-05-21T07:56:02.726Z,3992.00
2018-05-21T07:57:02.758Z,3976.00
2018-05-21T07:58:02.783Z,3976.00
2018-05-21T07:59:02.806Z,3976.00
2018-05-21T08:00:02.838Z,3972.00
2018-05-21T08:01:02.866Z,3984.00
2018-05-21T08:02:02.890Z,3988.00
2018-05-21T08:03:02.911Z,3980.00
2018-05-21T08:04:02.944Z,3980.00
2018-05-21T08:05:02.972Z,3992.00
2018-05-21T08:06:02.995Z,4012.00
2018-05-21T08:07:03.029Z,4000.00
2018-05-21T08:08:03.051Z,4004.00
2018-05-21T08:09:03.080Z,3992.00
2018-05-21T08:10:03.104Z,4000.00
2018-05-21T08:11:03.131Z,4004.00
2018-05-21T08:12:03.156Z,4016.00
2018-05-21T08:13:03.184Z,4020.00
2018-05-21T08:14:03.211Z,4016.00
2018-05-21T08:15:03.234Z,4016.00
2018-05-21T08:16:03.265Z,4028.00
2018-05-21T08:17:03.291Z,4036.00
2018-05-21T08:18:03.324Z,4052.00
2018-05-21T08:19:03.348Z,4052.00
2018-05-21T08:20:03.378Z,4060.00
2018-05-21T08:21:03.404Z,4068.00
2018-05-21T08:22:03.429Z,4072.00
2018-05-21T08:23:03.456Z,4124.00
2018-05-21T08:24:03.481Z,4092.00
2018-05-21T08:25:03.515Z,4104.00
2018-05-21T08:26:03.554Z,4108.00
2018-05-21T08:27:03.597Z,4120.00
2018-05-21T08:28:03.592Z,4276.00
2018-05-21T08:29:03.618Z,4156.00
2018-05-21T08:30:03.644Z,4144.00
2018-05-21T08:31:03.670Z,4148.00
2018-05-21T08:32:03.705Z,4164.00
2018-05-21T08:33:03.725Z,4184.00
2018-05-21T08:34:03.752Z,4204.00
2018-05-21T08:35:03.782Z,4212.00
2018-05-21T08:36:03.808Z,4220.00
2018-05-21T08:37:03.838Z,4224.00
2018-05-21T08:38:03.860Z,4248.00
2018-05-21T08:39:03.886Z,4252.00
2018-05-21T08:40:03.920Z,4260.00
2018-05-21T08:41:03.943Z,4264.00
2018-05-21T08:42:03.971Z,4280.00
2018-05-21T08:43:03.997Z,4312.00
2018-05-21T08:44:04.021Z,4312.00
2018-05-21T08:45:04.053Z,4284.00
2018-05-21T08:46:04.073Z,4296.00
2018-05-21T08:47:04.107Z,4292.00
2018-05-21T08:48:04.140Z,4304.00
2018-05-21T08:49:04.162Z,4316.00
2018-05-21T08:50:04.189Z,4324.00
2018-05-21T08:51:04.219Z,4336.00
2018-05-21T08:52:04.242Z,4512.00
2018-05-21T08:53:04.274Z,4348.00
2018-05-21T08:54:04.303Z,4348.00
2018-05-21T08:55:04.322Z,4380.00
2018-05-21T08:56:04.445Z,4376.00
2018-05-21T08:57:04.379Z,4400.00
2018-05-21T08:58:04.403Z,4404.00
2018-05-21T08:59:04.430Z,4416.00
2018-05-21T09:00:04.468Z,4572.00
2018-05-21T09:01:04.483Z,4464.00
2018-05-21T09:02:04.508Z,4492.00
2018-05-21T09:03:04.539Z,4488.00
2018-05-21T09:04:04.568Z,4488.00
2018-05-21T09:05:04.593Z,4496.00
2018-05-21T09:06:04.618Z,4512.00
2018-05-21T09:07:04.658Z,4552.00
2018-05-21T09:08:04.673Z,4552.00
2018-05-21T09:09:04.705Z,4560.00
2018-05-21T09:10:04.788Z,4572.00
2018-05-21T09:11:04.762Z,4580.00
2018-05-21T09:12:04.789Z,4604.00
2018-05-21T09:13:04.813Z,4620.00
2018-05-21T09:14:04.839Z,4660.00
2018-05-21T09:15:04.869Z,4660.00
2018-05-21T09:16:04.915Z,4684.00
2018-05-21T09:17:04.924Z,4692.00
2018-05-21T09:18:04.961Z,4716.00
2018-05-21T09:19:04.975Z,4708.00
2018-05-21T09:20:05.008Z,4736.00
2018-05-21T09:21:05.040Z,4752.00
2018-05-21T09:22:05.077Z,4776.00
2018-05-21T09:23:05.095Z,4788.00
2018-05-21T09:24:05.115Z,4796.00
2018-05-21T09:25:05.143Z,4804.00
2018-05-21T09:26:05.224Z,4812.00
2018-05-21T09:27:05.196Z,4832.00
2018-05-21T09:28:05.234Z,4868.00
2018-05-21T09:29:05.255Z,4868.00
2018-05-21T09:30:05.281Z,4924.00
2018-05-21T09:31:05.312Z,4912.00
2018-05-21T09:32:05.343Z,4952.00
2018-05-21T09:33:05.369Z,4956.00
2018-05-21T09:34:05.387Z,4996.00
2018-05-21T09:35:05.421Z,4980.00
2018-05-21T09:36:05.447Z,5012.00
2018-05-21T09:37:05.473Z,5040.00
2018-05-21T09:38:05.500Z,5032.00
2018-05-21T09:39:05.528Z,5056.00
2018-05-21T09:40:05.562Z,5084.00
2018-05-21T09:41:05.591Z,5112.00
2018-05-21T09:42:05.629Z,5116.00
2018-05-21T09:43:05.649Z,5120.00
2018-05-21T09:44:05.671Z,5128.00
2018-05-21T09:45:05.697Z,5152.00
2018-05-21T09:46:05.731Z,5172.00
2018-05-21T09:47:05.750Z,5216.00
2018-05-21T09:48:05.828Z,5236.00
2018-05-21T09:49:05.810Z,5248.00
2018-05-21T09:50:05.831Z,5252.00
2018-05-21T09:51:05.860Z,5252.00
2018-05-21T09:52:05.895Z,5256.00
2018-05-21T09:53:05.917Z,5272.00
2018-05-21T09:54:05.948Z,5276.00
2018-05-21T09:55:05.971Z,5300.00
2018-05-21T09:56:06.006Z,5332.00
2018-05-21T09:57:06.027Z,5340.00
2018-05-21T09:58:06.062Z,5368.00
2018-05-21T09:59:06.085Z,5400.00
2018-05-21T10:00:06.112Z,5432.00
2018-05-21T10:01:06.139Z,5484.00
2018-05-21T10:02:06.169Z,5452.00
2018-05-21T10:03:06.199Z,5468.00
2018-05-21T10:04:06.228Z,5472.00
2018-05-21T10:05:06.251Z,5480.00
2018-05-21T10:06:06.280Z,5492.00
2018-05-21T10:07:06.307Z,5556.00
2018-05-21T10:08:06.336Z,5532.00
2018-05-21T10:09:06.362Z,5552.00
2018-05-21T10:10:06.391Z,5592.00
2018-05-21T10:11:06.420Z,5612.00
2018-05-21T10:12:06.538Z,5636.00
2018-05-21T10:13:06.479Z,5640.00
2018-05-21T10:14:06.499Z,5680.00
2018-05-21T10:15:06.530Z,5712.00
2018-05-21T10:16:06.561Z,5748.00
2018-05-21T10:17:06.586Z,5764.00
2018-05-21T10:18:06.619Z,5788.00
2018-05-21T10:19:06.641Z,5820.00
2018-05-21T10:20:06.671Z,5856.00
2018-05-21T10:21:06.715Z,5868.00
2018-05-21T10:22:06.726Z,5888.00
2018-05-21T10:23:06.757Z,5912.00
2018-05-21T10:24:06.799Z,5944.00
2018-05-21T10:25:06.819Z,5972.00
2018-05-21T10:26:06.889Z,5988.00
2018-05-21T10:27:06.866Z,6044.00
2018-05-21T10:28:06.897Z,6108.00
2018-05-21T10:29:06.925Z,6144.00
2018-05-21T10:30:06.949Z,6188.00
2018-05-21T10:31:06.987Z,6224.00
2018-05-21T10:32:07.010Z,6280.00
2018-05-21T10:33:07.037Z,6340.00
2018-05-21T10:34:07.070Z,6368.00
2018-05-21T10:35:07.095Z,6444.00
2018-05-21T10:36:07.127Z,6496.00
2018-05-21T10:37:07.234Z,6592.00
2018-05-21T10:38:07.198Z,6660.00
2018-05-21T10:39:07.216Z,6744.00
2018-05-21T10:40:07.237Z,6816.00
2018-05-21T10:41:07.268Z,6896.00
2018-05-21T10:42:07.293Z,7008.00
2018-05-21T10:43:07.323Z,7124.00
2018-05-21T10:44:07.351Z,7316.00
2018-05-21T10:45:07.377Z,7516.00
2018-05-21T10:46:07.406Z,7868.00
2018-05-21T10:47:07.433Z,8500.00
2018-05-21T10:48:07.466Z,9576.00
2018-05-21T10:49:07.493Z,11220.00
2018-05-21T10:50:07.517Z,13092.00
2018-05-21T10:51:07.552Z,14836.00
2018-05-21T10:52:07.578Z,16836.00
2018-05-21T10:53:07.604Z,19648.00
2018-05-21T10:54:07.630Z,22784.00
2018-05-21T10:55:07.667Z,26784.00
2018-05-21T10:56:07.721Z,31712.00
2018-05-21T10:57:07.720Z,34912.00
2018-05-21T10:58:07.751Z,35776.00
2018-05-21T10:59:07.779Z,36416.00
2018-05-21T11:00:07.813Z,36960.00
2018-05-21T11:01:07.835Z,37344.00
2018-05-21T11:02:07.865Z,37792.00
2018-05-21T11:03:07.896Z,38304.00
2018-05-21T11:04:07.929Z,38592.00
2018-05-21T11:05:07.963Z,38912.00
2018-05-21T11:06:07.989Z,39328.00
2018-05-21T11:07:08.025Z,39680.00
2018-05-21T11:08:08.052Z,40224.00
2018-05-21T11:09:08.083Z,40512.00
2018-05-21T11:10:08.130Z,41024.00
2018-05-21T11:11:08.149Z,41504.00
2018-05-21T11:12:08.332Z,41632.00
2018-05-21T11:13:08.212Z,41600.00
2018-05-21T11:14:08.245Z,42144.00
2018-05-21T11:15:08.276Z,42688.00
2018-05-21T11:16:08.312Z,43328.00
2018-05-21T11:17:08.346Z,43968.00
2018-05-21T11:18:08.380Z,42496.00
2018-05-21T11:19:08.414Z,44000.00
2018-05-21T11:20:08.444Z,43520.00
2018-05-21T11:21:08.480Z,45184.00
2018-05-21T11:22:08.516Z,45600.00
2018-05-21T11:23:08.549Z,45568.00
2018-05-21T11:24:08.586Z,45696.00
2018-05-21T11:25:08.623Z,46080.00
2018-05-21T11:26:08.660Z,45792.00
2018-05-21T11:27:08.691Z,46272.00
2018-05-21T11:28:08.731Z,47552.00
2018-05-21T11:29:08.775Z,49024.00
2018-05-21T11:30:08.796Z,49312.00
2018-05-21T11:31:08.832Z,49472.00
2018-05-21T11:32:08.882Z,50432.00
2018-05-21T11:33:08.907Z,50048.00
2018-05-21T11:34:08.943Z,50208.00
2018-05-21T11:35:08.984Z,50944.00
2018-05-21T11:36:09.017Z,50688.00
2018-05-21T11:37:09.053Z,50656.00
2018-05-21T11:38:09.092Z,50048.00
2018-05-21T11:39:09.132Z,49920.00
2018-05-21T11:40:09.165Z,50720.00
2018-05-21T11:41:09.201Z,52224.00
2018-05-21T11:42:09.236Z,53792.00
2018-05-21T11:43:09.276Z,54112.00
2018-05-21T11:44:09.312Z,54496.00
2018-05-21T11:45:09.351Z,53952.00
2018-05-21T11:46:09.390Z,53312.00
2018-05-21T11:47:09.426Z,55072.00
2018-05-21T11:48:09.461Z,57600.00
2018-05-21T11:49:09.499Z,56064.00
2018-05-21T11:50:09.538Z,55232.00
2018-05-21T11:51:09.578Z,56544.00
2018-05-21T11:52:09.611Z,56864.00
2018-05-21T11:53:09.653Z,57856.00
2018-05-21T11:54:09.688Z,57696.00
2018-05-21T11:55:09.730Z,55488.00
2018-05-21T11:56:09.770Z,56832.00
2018-05-21T11:57:09.807Z,59072.00
2018-05-21T11:58:09.847Z,53984.00
2018-05-21T11:59:09.880Z,54688.00
2018-05-21T12:00:09.917Z,60320.00
2018-05-21T12:01:09.951Z,63744.00
2018-05-21T12:02:09.996Z,63552.00
2018-05-21T12:03:10.040Z,62208.00
2018-05-21T12:04:10.075Z,60800.00
2018-05-21T12:05:10.115Z,63488.00
2018-05-21T12:06:10.150Z,65280.00
2018-05-21T12:07:10.184Z,63744.00
2018-05-21T12:08:10.232Z,65216.00
2018-05-21T12:09:10.260Z,66560.00
2018-05-21T12:10:10.304Z,64288.00
2018-05-21T12:11:10.345Z,64096.00
2018-05-21T12:12:10.379Z,65472.00
2018-05-21T12:13:10.423Z,66848.00
2018-05-21T12:14:10.456Z,63264.00
2018-05-21T12:15:10.496Z,62528.00
2018-05-21T12:16:10.540Z,62432.00
2018-05-21T12:17:10.583Z,61376.00
2018-05-21T12:18:10.620Z,59648.00
2018-05-21T12:19:10.655Z,56960.00
2018-05-21T12:20:10.699Z,55040.00
2018-05-21T12:21:10.734Z,53728.00